Latest Weather Observations for Mackay Airport

IDQ60801

Issued at 8:32 am EST Wednesday 31 August 2016 (issued every 30 minutes, with the page automatically refreshed every 10 minutes)

About weather observations | Map of weather stations | Latest weather observations for QLD | Other Formats
Station Details ID: 033045 Name: MACKAY AERO Lat: -21.17 Lon: 149.18 Height: 4.7 m
Data from the previous 72 hours. | See also: Recent months at Mackay Airport
Date/Time
EST
Temp
°C
App
Temp
°C
Dew
Point
°C
Rel
Hum
%
Delta-T
°C
Wind Press
QNH
hPa
Press
MSL
hPa
Rain since
9am
mm
Dir  Spd
km/h
Gust
km/h
Spd
kts
Gust
kts
31/08:30am 22.6 23.3 19.6 83 1.9 ESE 15 19 8 10 1023.3 1023.3 0.0
31/08:00am 21.2 23.2 19.1 88 1.3 SSW 7 11 4 6 1023.2 1023.2 0.0
31/07:30am 20.4 22.2 18.7 90 1.1 SW 7 9 4 5 1023.1 1023.1 0.0
31/07:00am 19.3 20.4 18.1 93 0.7 SSW 9 11 5 6 1022.9 1022.9 0.0
31/06:30am 18.9 20.3 17.7 93 0.7 S 7 11 4 6 1022.6 1022.6 0.0
31/06:00am 19.1 20.0 17.6 91 0.9 SSE 9 13 5 7 1022.2 1022.2 0.0
31/05:30am 19.2 20.0 17.3 89 1.2 SSE 9 13 5 7 1021.9 1021.9 0.0
31/05:00am 20.2 21.1 18.3 89 1.2 ESE 11 13 6 7 1021.6 1021.6 0.0
31/04:30am 20.6 21.2 18.5 88 1.3 ESE 13 15 7 8 1021.4 1021.4 0.0
31/04:00am 20.5 20.9 18.1 86 1.5 ESE 13 17 7 9 1021.3 1021.3 0.0
31/03:30am 20.0 21.4 17.8 87 1.4 ESE 7 13 4 7 1021.6 1021.6 0.0
31/03:00am 20.3 19.9 18.1 87 1.4 SE 17 22 9 12 1021.8 1021.8 0.0
31/02:30am 20.2 19.5 18.3 89 1.2 SE 19 22 10 12 1022.2 1022.2 0.0
31/02:00am 20.4 20.8 18.2 87 1.4 SSE 13 17 7 9 1022.4 1022.4 0.0
31/01:30am 20.3 20.3 18.2 88 1.3 SE 15 19 8 10 1022.7 1022.7 0.0
31/01:00am 20.4 20.1 18.3 88 1.3 SE 17 24 9 13 1022.9 1022.9 0.0
31/12:30am 20.6 19.8 18.4 87 1.4 SSE 20 26 11 14 1022.8 1022.8 0.0
31/12:00am 20.5 19.8 18.3 87 1.4 SE 19 24 10 13 1023.3 1023.3 0.0
 
Date/Time
EST
Temp
°C
App
Temp
°C
Dew
Point
°C
Rel
Hum
%
Delta-T
°C
Wind Press
QNH
hPa
Press
MSL
hPa
Rain since
9am
mm
Dir  Spd
km/h
Gust
km/h
Spd
kts
Gust
kts
30/11:30pm 20.6 19.3 18.2 86 1.5 SE 22 28 12 15 1023.5 1023.5 0.0
30/11:00pm 20.8 19.3 17.8 83 1.8 SE 22 26 12 14 1023.5 1023.5 0.0
30/10:30pm 20.8 19.5 18.2 85 1.6 ESE 22 32 12 17 1023.7 1023.7 0.0
30/10:00pm 20.8 19.0 18.7 88 1.3 ESE 26 33 14 18 1023.7 1023.7 0.0
30/09:30pm 21.3 19.9 18.7 85 1.6 ESE 24 32 13 17 1023.9 1023.9 0.0
30/09:00pm 21.3 20.6 18.7 85 1.6 SE 20 28 11 15 1023.9 1023.9 0.0
30/08:30pm 21.3 20.6 18.3 83 1.9 SE 19 24 10 13 1023.8 1023.8 0.0
30/08:00pm 21.5 20.6 18.1 81 2.1 SE 20 24 11 13 1023.7 1023.7 0.0
30/07:30pm 21.4 20.6 18.0 81 2.1 SE 19 24 10 13 1023.4 1023.4 0.0
30/07:00pm 21.3 20.3 17.9 81 2.1 SE 20 26 11 14 1023.1 1023.1 0.0
30/06:30pm 21.5 20.1 17.9 80 2.2 SE 22 28 12 15 1022.8 1022.8 0.0
30/06:00pm 21.7 20.4 17.3 76 2.7 SE 20 28 11 15 1022.4 1022.4 0.0
30/05:30pm 22.0 20.8 17.4 75 2.8 SE 20 28 11 15 1022.2 1022.2 0.0
30/05:00pm 22.3 20.6 18.1 77 2.6 SE 24 32 13 17 1021.8 1021.8 0.0
30/04:30pm 22.7 20.6 17.2 71 3.4 ESE 24 30 13 16 1021.6 1021.6 0.0
30/04:00pm 23.1 21.0 17.1 69 3.7 SE 24 30 13 16 1021.3 1021.3 0.0
30/03:30pm 23.4 20.2 17.2 68 3.8 ESE 30 35 16 19 1021.4 1021.4 0.0
30/03:00pm 23.9 20.9 16.9 65 4.3 ESE 28 37 15 20 1021.6 1021.6 0.0
30/02:30pm 24.2 22.7 17.7 67 4.1 SE 22 30 12 16 1021.9 1021.9 0.0
30/02:00pm 24.2 22.2 17.4 65 4.2 ESE 24 33 13 18 1022.3 1022.3 0.0
30/01:30pm 24.3 21.1 17.3 65 4.3 ESE 30 35 16 19 1022.3 1022.3 0.0
30/01:00pm 24.2 21.4 17.2 65 4.3 ESE 28 33 15 18 1022.6 1022.6 0.0
30/12:30pm 24.1 21.9 16.9 64 4.4 ESE 24 32 13 17 1023.1 1023.1 0.0
30/12:00pm 24.1 22.1 17.4 66 4.1 ESE 24 30 13 16 1023.6 1023.6 0.0
30/11:30am 24.6 23.3 18.1 67 4.1 ESE 22 30 12 16 1024.0 1024.0 0.0
30/11:00am 23.9 22.6 17.2 66 4.1 E 20 26 11 14 1024.3 1024.3 0.0
30/10:30am 23.6 22.2 16.9 66 4.1 E 20 28 11 15 1024.4 1024.4 0.0
30/10:00am 24.0 21.6 16.5 63 4.6 E 24 30 13 16 1024.5 1024.5 0.0
30/09:30am 24.2 22.6 17.4 65 4.2 E 22 28 12 15 1024.4 1024.4 0.0
30/09:00am 22.9 21.9 17.6 72 3.3 E 19 24 10 13 1024.3 1024.3 0.0
30/08:30am 22.1 21.4 18.7 81 2.1 SE 20 24 11 13 1023.9 1023.9 0.0
30/08:00am 22.0 21.5 18.6 81 2.1 ESE 19 24 10 13 1023.6 1023.6 0.0
30/07:30am 21.3 20.8 18.7 85 1.6 E 19 24 10 13 1023.2 1023.2 0.0
30/07:00am 20.6 20.7 18.4 87 1.4 E 15 19 8 10 1022.9 1022.9 0.0
30/06:30am 20.7 19.7 17.5 82 2.0 E 19 24 10 13 1022.7 1022.7 0.0
30/06:00am 20.5 18.9 17.5 83 1.8 ESE 22 28 12 15 1022.3 1022.3 0.0
30/05:30am 20.5 19.3 17.5 83 1.8 ESE 20 26 11 14 1022.0 1022.0 0.0
30/05:00am 20.7 19.7 17.9 84 1.7 ESE 20 28 11 15 1021.5 1021.5 0.0
30/04:30am 20.5 18.7 17.9 85 1.6 ESE 24 28 13 15 1021.4 1021.4 0.0
30/04:00am 19.9 18.3 17.5 86 1.5 ESE 22 26 12 14 1021.3 1021.3 0.0
30/03:30am 20.5 19.6 18.1 86 1.5 SE 20 26 11 14 1021.2 1021.2 0.0
30/03:00am 20.3 19.7 17.5 84 1.7 ESE 17 22 9 12 1021.3 1021.3 0.0
30/02:30am 20.1 18.8 17.3 84 1.7 SE 20 26 11 14 1021.5 1021.5 0.0
30/02:00am 20.5 18.7 16.9 80 2.2 ESE 22 30 12 16 1021.5 1021.5 0.0
30/01:30am 20.5 19.4 17.3 82 2.0 SE 19 24 10 13 1021.6 1021.6 0.0
30/01:00am 20.6 18.8 17.0 80 2.2 ESE 22 28 12 15 1022.0 1022.0 0.0
30/12:30am 20.3 17.9 16.5 79 2.3 ESE 24 30 13 16 1022.0 1022.0 0.0
30/12:00am 20.3 18.0 16.7 80 2.2 ESE 24 30 13 16 1022.2 1022.2 0.0
 
Date/Time
EST
Temp
°C
App
Temp
°C
Dew
Point
°C
Rel
Hum
%
Delta-T
°C
Wind Press
QNH
hPa
Press
MSL
hPa
Rain since
9am
mm
Dir  Spd
km/h
Gust
km/h
Spd
kts
Gust
kts
29/11:30pm 20.3 17.9 16.5 79 2.3 ESE 24 30 13 16 1022.4 1022.4 0.0
29/11:00pm 20.3 18.1 16.9 81 2.1 ESE 24 30 13 16 1022.5 1022.5 0.0
29/10:30pm 20.3 17.6 16.7 80 2.2 ESE 26 33 14 18 1022.5 1022.5 0.0
29/10:00pm 20.3 17.6 16.5 79 2.3 ESE 26 33 14 18 1022.6 1022.6 0.0
29/09:30pm 20.6 17.8 16.4 77 2.5 ESE 26 32 14 17 1022.8 1022.8 0.0
29/09:00pm 20.3 17.4 16.1 77 2.5 ESE 26 33 14 18 1022.8 1022.8 0.0
29/08:30pm 20.2 17.5 16.6 80 2.2 ESE 26 33 14 18 1022.8 1022.8 0.0
29/08:00pm 20.4 17.8 16.8 80 2.2 ESE 26 33 14 18 1022.6 1022.6 0.0
29/07:30pm 20.3 17.7 16.9 81 2.1 ESE 26 35 14 19 1022.3 1022.3 0.0
29/07:00pm 20.5 17.5 16.9 80 2.2 SE 28 37 15 20 1022.2 1022.2 0.0
29/06:30pm 20.4 18.2 16.8 80 2.2 SE 24 32 13 17 1022.1 1022.1 0.0
29/06:00pm 20.5 17.8 16.5 78 2.4 ESE 26 33 14 18 1022.0 1022.0 0.0
29/05:30pm 21.0 18.2 16.4 75 2.8 SE 26 33 14 18 1021.7 1021.7 0.0
29/05:00pm 21.8 19.0 17.2 75 2.8 SE 28 35 15 19 1021.7 1021.7 0.0
29/04:30pm 22.4 19.6 17.3 73 3.1 SE 28 35 15 19 1021.6 1021.6 0.0
29/04:00pm 22.4 18.9 16.4 69 3.6 SE 30 37 16 20 1021.6 1021.6 0.0
29/03:30pm 22.4 18.2 15.7 66 4.0 SE 32 39 17 21 1021.3 1021.3 0.0
29/03:00pm 23.0 19.1 16.5 67 4.0 SE 32 35 17 19 1021.2 1021.2 0.0
29/02:30pm 23.4 20.7 16.7 66 4.1 SE 26 32 14 17 1021.4 1021.4 0.0
29/02:00pm 23.7 20.9 17.2 67 4.0 SE 28 33 15 18 1021.7 1021.7 0.0
29/01:30pm 23.5 20.8 16.5 65 4.3 SE 26 32 14 17 1021.8 1021.8 0.0
29/01:00pm 23.4 20.7 17.6 70 3.6 SE 28 33 15 18 1022.1 1022.1 0.0
29/12:30pm 23.5 21.8 16.3 64 4.4 SE 20 26 11 14 1022.4 1022.4 0.0
29/12:00pm 23.9 22.7 17.4 67 4.0 SE 20 24 11 13 1022.8 1022.8 0.0
29/11:30am 23.1 21.6 17.6 71 3.4 SE 22 28 12 15 1023.2 1023.2 0.0
29/11:00am 22.8 20.5 16.6 68 3.8 SE 24 30 13 16 1023.2 1023.2 0.0
29/10:30am 22.9 21.7 17.1 70 3.6 SE 19 24 10 13 1023.4 1023.4 0.0
29/10:00am 22.3 21.0 15.9 67 3.8 SE 17 22 9 12 1023.6 1023.6 0.0
29/09:30am 22.0 21.0 16.5 71 3.3 SSE 17 20 9 11 1023.7 1023.7 0.0
29/09:00am 19.5 19.4 16.0 80 2.1 S 11 17 6 9 1023.6 1023.6 0.0
29/08:30am 17.7 17.7 15.1 85 1.5 SSW 9 13 5 7 1023.5 1023.5 0.0
29/08:00am 15.8 15.2 13.5 86 1.3 WSW 9 13 5 7 1023.5 1023.5 0.0
29/07:30am 14.8 13.9 12.7 87 1.2 WSW 9 11 5 6 1023.0 1023.0 0.0
29/07:00am 14.1 13.6 12.5 90 0.9 WSW 7 11 4 6 1022.6 1022.6 0.0
29/06:30am 13.5 12.3 11.7 89 1.0 WSW 9 13 5 7 1022.4 1022.4 0.0
29/06:00am 13.4 12.2 11.6 89 1.0 WSW 9 13 5 7 1022.1 1022.1 0.0
29/05:30am 13.0 11.7 11.4 90 0.8 W 9 13 5 7 1021.7 1021.7 0.0
29/05:00am 12.9 11.2 11.3 90 0.8 WSW 11 13 6 7 1021.7 1021.7 0.0
29/04:30am 12.6 10.8 11.0 90 0.8 W 11 17 6 9 1021.5 1021.5 0.0
29/04:00am 11.9 10.1 10.8 93 0.6 WSW 11 13 6 7 1021.2 1021.2 0.0
29/03:30am 11.6 10.0 10.2 91 0.7 W 9 13 5 7 1021.1 1021.1 0.0
29/03:00am 11.6 9.6 10.3 92 0.7 WSW 11 15 6 8 1021.3 1021.3 0.0
29/02:30am 11.6 10.1 10.7 94 0.5 W 9 13 5 7 1021.3 1021.3 0.0
29/02:00am 11.0 9.7 9.8 92 0.6 WSW 7 11 4 6 1021.5 1021.5 0.0
29/01:30am 11.5 10.2 10.1 91 0.7 WSW 7 9 4 5 1021.6 1021.6 0.0
29/01:00am 11.6 9.9 10.0 90 0.8 WSW 9 11 5 6 1021.8 1021.8 0.0
29/12:30am 11.6 9.7 10.5 93 0.6 WSW 11 15 6 8 1022.2 1022.2 0.0
29/12:00am 12.4 10.9 10.6 89 0.9 WSW 9 13 5 7 1022.2 1022.2 0.0
 
Date/Time
EST
Temp
°C
App
Temp
°C
Dew
Point
°C
Rel
Hum
%
Delta-T
°C
Wind Press
QNH
hPa
Press
MSL
hPa
Rain since
9am
mm
Dir  Spd
km/h
Gust
km/h
Spd
kts
Gust
kts
28/11:30pm 12.3 10.8 10.7 90 0.8 WSW 9 11 5 6 1022.0 1022.0 0.0
28/11:00pm 12.2 11.4 11.1 93 0.6 SW 6 9 3 5 1022.0 1022.0 0.0
28/10:30pm 12.5 11.4 10.7 89 0.9 SW 7 9 4 5 1022.1 1022.1 0.0
28/10:00pm 12.2 10.4 10.8 91 0.7 SSW 11 13 6 7 1022.2 1022.2 0.0
28/09:30pm 12.7 10.6 11.1 90 0.8 SSW 13 15 7 8 1022.3 1022.3 0.0
28/09:00pm 13.1 11.0 11.2 88 1.0 SSW 13 15 7 8 1022.2 1022.2 0.0
28/08:30pm 14.2 13.1 11.9 86 1.2 SSW 9 13 5 7 1022.1 1022.1 0.0
28/08:00pm 15.6 13.8 11.0 74 2.4 SSE 11 20 6 11 1021.9 1021.9 0.0
28/07:30pm 16.4 14.6 12.2 76 2.3 SSE 13 19 7 10 1021.6 1021.6 0.0
28/07:00pm 17.7 15.3 12.6 72 2.8 SSE 17 22 9 12 1021.5 1021.5 0.0
28/06:30pm 18.0 15.0 12.5 70 3.1 SE 20 24 11 13 1021.2 1021.2 0.0
28/06:00pm 18.1 15.2 12.3 69 3.2 SE 19 24 10 13 1021.1 1021.1 0.0
28/05:30pm 18.7 15.5 12.0 65 3.7 SE 20 32 11 17 1020.9 1020.9 0.0
28/05:00pm 19.5 16.0 12.3 63 4.0 SE 22 30 12 16 1020.8 1020.8 0.0
28/04:30pm 19.8 15.7 11.3 58 4.7 SE 24 30 13 16 1020.7 1020.7 0.0
28/04:00pm 20.3 16.7 11.8 58 4.7 SE 22 32 12 17 1020.5 1020.5 0.0
28/03:30pm 20.5 16.8 11.4 56 5.0 ESE 22 30 12 16 1020.5 1020.5 0.0
28/03:00pm 20.7 17.0 11.6 56 5.0 SE 22 30 12 16 1020.5 1020.5 0.0
28/02:30pm 20.8 17.1 11.4 55 5.2 SE 22 28 12 15 1020.7 1020.7 0.0
28/02:00pm 21.3 18.2 12.2 56 5.1 SE 20 28 11 15 1021.0 1021.0 0.0
28/01:30pm 20.8 17.4 11.4 55 5.2 SE 20 30 11 16 1021.4 1021.4 0.0
28/01:00pm 20.8 17.6 11.2 54 5.3 SE 19 28 10 15 1021.9 1021.9 0.0
28/12:30pm 20.6 16.9 10.1 51 5.7 SE 20 28 11 15 1022.3 1022.3 0.0
28/12:00pm 21.1 17.3 11.2 53 5.4 SE 22 28 12 15 1022.6 1022.6 0.0
28/11:30am 21.2 17.9 11.5 54 5.4 SE 20 26 11 14 1023.1 1023.1 0.0
28/11:00am 21.3 18.0 11.6 54 5.4 SE 20 28 11 15 1023.4 1023.4 0.0
28/10:30am 20.8 17.2 10.6 52 5.6 SE 20 28 11 15 1023.6 1023.6 0.0
28/10:00am 19.7 16.0 9.3 51 5.5 SSE 19 24 10 13 1023.9 1023.9 0.0
28/09:30am 19.8 16.1 10.0 53 5.3 SSE 20 28 11 15 1023.8 1023.8 0.0
28/09:00am 18.2 14.2 8.2 52 5.1 S 19 24 10 13 1023.8 1023.8 0.0

Other Formats:

Comma delimited format used in spreadsheet applications
http://www.bom.gov.au/fwo/IDQ60801/IDQ60801.95367.axf

JavaScript Object Notation format (JSON) in row-major order
http://www.bom.gov.au/fwo/IDQ60801/IDQ60801.95367.json